• Join FlightAware (Why Join?)
  • Login
  • US Flag 
Rudolph Flight #1: Arrived! 
01:05AM EST


 

Airport Tracker/Info


-or-


 

Live Flight TrackerFlight Track Log ✈ UAL3598 ✈ 16-Jun-2014 ✈ KEWR - KBGM

Flight Track Log - Related Links

Times and Time Zones

All times are in EDT time to prevent confusion due to time zone crossing. See the UAL3598 flight status page for this flight to view local times or setup timezone preferences in your user account.

Time Position Orientation Groundspeed Altitude Reporting Facility
EDT Latitude Longitude Course Direction KTS MPH feet Rate Location/Type
11:31PM 40.6833 -74.1833 323° Northwest 102 117 400  Level New York TRACON
11:32PM 40.6500 -74.1833 180° South 134 154 1,900 1,380 Climbing New York TRACON
11:32PM 40.6333 -74.2333 246° West 157 181 3,100 1,380 Climbing New York TRACON
11:33PM 40.6500 -74.2833 294° West 172 198 4,600 1,380 Climbing New York TRACON
11:35PM 40.7000 -74.3167 333° Northwest 167 192 6,100 1,260 Climbing New York TRACON
11:36PM 40.8927 -74.4094 323° Northwest  Level FlightAware Approximate
11:37PM 40.7750 -74.3881 324° Northwest 180 207 8,600  Level New York Center
11:38PM 40.8217 -74.4264 328° Northwest 185 213 10,300 1,200 Climbing New York Center
11:39PM 40.8622 -74.4614 327° Northwest 185 213 11,000 720 Climbing New York Center
11:40PM 40.9192 -74.5083 328° Northwest 200 230 11,800 480 Climbing New York Center
11:41PM 40.9678 -74.5497 327° Northwest 218 251 12,000  Climbing New York Center
11:42PM 41.0306 -74.6053 326° Northwest 239 275 11,900 -60 Descending New York Center
11:43PM 41.0833 -74.6497 328° Northwest 251 289 11,900  Level New York Center
11:44PM 41.1439 -74.7083 324° Northwest 251 289 12,000  Climbing New York Center
11:45PM 41.1728 -74.7733 301° West 235 270 12,000  Level New York Center
11:46PM 41.2036 -74.8497 298° West 220 253 12,000 300 Level New York Center
11:47PM 41.2478 -74.8964 322° Northwest 220 253 12,600 660 Climbing New York Center
11:48PM 41.3039 -74.9578 321° Northwest 227 261 13,400 600 Climbing New York Center
11:49PM 41.3481 -75.0047 321° Northwest 227 261 13,900 300 Climbing New York Center
11:50PM 41.3961 -75.0603 319° Northwest 227 261 14,000  Climbing New York Center
11:51PM 41.4522 -75.1222 320° Northwest 227 261 14,000  Level New York Center
11:52PM 41.5042 -75.1781 321° Northwest 233 268 14,000  Level New York Center
11:53PM 41.5542 -75.2367 319° Northwest 233 268 14,000  Level New York Center
11:54PM 41.6000 -75.2869 321° Northwest 233 268 14,000  Level New York Center
11:55PM 41.6561 -75.3492 320° Northwest 233 268 14,000  Level New York Center
11:56PM 41.7058 -75.4081 319° Northwest 233 268 14,000 -360 Level New York Center
11:57PM 41.7575 -75.4672 320° Northwest 233 268 13,300 -900 Descending New York Center
11:58PM 41.8075 -75.5236 320° Northwest 253 291 12,200 -1,200 Descending New York Center
11:59PM 41.8611 -75.5861 319° Northwest 253 291 11,000 -1,260 Descending New York Center
12:00AM 41.9208 -75.6544 320° Northwest 253 291 9,700 -1,020 Descending New York Center
12:01AM 41.9794 -75.6950 333° Northwest 245 282 9,000 -720 Descending New York Center
12:02AM 42.0400 -75.6911 North 221 254 8,300 -900 Descending New York Center
12:03AM 42.0983 -75.6928 359° North 221 254 7,300 -1,140 Descending New York Center
12:04AM 42.1644 -75.7033 353° North 221 254 6,100 -660 Descending New York Center
12:05AM 42.2217 -75.7272 343° North 221 254 6,000 -60 Descending New York Center
12:06AM 42.2647 -75.7947 311° West 216 249 6,000 -540 Level New York Center
12:07AM 42.2828 -75.8606 290° West 203 234 5,000 -900 Descending New York Center
12:08AM 42.2842 -75.9197 272° West 176 203 4,300 -960 Descending New York Center
12:09AM 42.2669 -75.9828 250° West 165 190 3,100 -1,140 Descending New York Center
12:10AM 42.2328 -76.0053 206° Southwest 156 180 2,100 -600 Descending New York Center
12:11AM 42.2022 -76.0364 217° Southwest 126 145 1,900 420 Descending New York Center
12:12AM 42.1756 -76.0706 224° Southwest 126 145 3,000 1,080 Climbing New York Center